createdAt,value
2018-02-11T00:00:01.312Z,30.88
2018-02-11T00:02:30.546Z,31.70
2018-02-11T00:04:59.783Z,25.27
2018-02-11T00:07:28.981Z,39.70
2018-02-11T00:09:58.253Z,29.05
2018-02-11T00:12:27.462Z,25.60
2018-02-11T00:14:56.690Z,23.35
2018-02-11T00:17:25.906Z,25.50
2018-02-11T00:19:55.120Z,23.38
2018-02-11T00:22:24.339Z,21.33
2018-02-11T00:24:53.572Z,23.83
2018-02-11T00:27:22.794Z,21.23
2018-02-11T00:29:52.440Z,25.92
2018-02-11T00:32:21.660Z,22.62
2018-02-11T00:34:50.889Z,29.10
2018-02-11T00:37:25.751Z,20.20
2018-02-11T00:39:54.986Z,19.05
2018-02-11T00:42:24.188Z,18.00
2018-02-11T00:44:53.404Z,18.95
2018-02-11T00:47:22.639Z,19.48
2018-02-11T00:49:51.851Z,21.50
2018-02-11T00:52:21.081Z,17.60
2018-02-11T00:54:50.283Z,16.85
2018-02-11T00:57:19.492Z,20.50
2018-02-11T00:59:48.700Z,17.70
2018-02-11T01:02:17.905Z,20.90
2018-02-11T01:04:47.127Z,18.73
2018-02-11T01:07:16.327Z,15.35
2018-02-11T01:09:45.536Z,17.95
2018-02-11T01:12:14.749Z,16.10
2018-02-11T01:14:43.964Z,17.98
2018-02-11T01:17:13.173Z,15.07
2018-02-11T01:19:42.374Z,15.45
2018-02-11T01:22:11.599Z,16.27
2018-02-11T01:24:40.819Z,13.73
2018-02-11T01:27:10.054Z,13.52
2018-02-11T01:29:39.276Z,13.20
2018-02-11T01:32:08.484Z,12.55
2018-02-11T01:34:37.733Z,13.27
2018-02-11T01:37:06.934Z,15.40
2018-02-11T01:39:36.141Z,16.50
2018-02-11T01:42:05.344Z,14.25
2018-02-11T01:44:34.543Z,14.68
2018-02-11T01:47:03.746Z,15.70
2018-02-11T01:49:32.943Z,13.18
2018-02-11T01:52:02.152Z,17.50
2018-02-11T01:54:31.361Z,16.12
2018-02-11T01:57:00.564Z,19.62
2018-02-11T01:59:29.791Z,23.35
2018-02-11T02:01:59.000Z,17.75
2018-02-11T02:04:28.204Z,15.43
2018-02-11T02:06:57.489Z,13.30
2018-02-11T02:09:26.698Z,18.10
2018-02-11T02:11:55.909Z,19.12
2018-02-11T02:14:25.141Z,15.07
2018-02-11T02:16:54.360Z,18.87
2018-02-11T02:19:23.583Z,22.52
2018-02-11T02:21:52.797Z,17.45
2018-02-11T02:24:22.022Z,18.40
2018-02-11T02:26:51.232Z,16.98
2018-02-11T02:29:20.450Z,15.75
2018-02-11T02:31:49.645Z,17.48
2018-02-11T02:34:18.885Z,18.12
2018-02-11T02:36:48.133Z,20.95
2018-02-11T02:39:17.370Z,17.52
2018-02-11T02:41:46.569Z,20.33
2018-02-11T02:44:15.783Z,18.90
2018-02-11T02:46:45.024Z,18.23
2018-02-11T02:49:14.275Z,18.05
2018-02-11T02:51:43.550Z,22.77
2018-02-11T02:54:12.760Z,15.60
2018-02-11T02:56:41.973Z,22.02
2018-02-11T02:59:11.193Z,17.40
2018-02-11T03:01:40.405Z,20.50
2018-02-11T03:04:09.617Z,20.00
2018-02-11T03:06:38.840Z,16.25
2018-02-11T03:09:08.046Z,19.35
2018-02-11T03:11:37.266Z,19.83
2018-02-11T03:14:06.468Z,19.37
2018-02-11T03:16:35.699Z,21.92
2018-02-11T03:19:04.939Z,16.77
2018-02-11T03:21:34.144Z,23.10
2018-02-11T03:24:03.355Z,23.25
2018-02-11T03:26:32.558Z,20.45
2018-02-11T03:29:01.804Z,18.48
2018-02-11T03:31:31.014Z,17.67
2018-02-11T03:34:00.217Z,22.40
2018-02-11T03:36:29.452Z,19.17
2018-02-11T03:38:58.691Z,17.95
2018-02-11T03:41:27.903Z,14.48
2018-02-11T03:43:57.761Z,17.70
2018-02-11T03:46:26.996Z,14.68
2018-02-11T03:48:56.212Z,15.98
2018-02-11T03:51:25.415Z,19.02
2018-02-11T03:53:54.683Z,11.20
2018-02-11T03:56:23.897Z,14.00
2018-02-11T03:58:53.092Z,14.38
2018-02-11T04:01:22.304Z,11.55
2018-02-11T04:03:51.508Z,11.55
2018-02-11T04:06:20.728Z,13.57
2018-02-11T04:08:49.931Z,12.18
2018-02-11T04:11:19.133Z,15.93
2018-02-11T04:13:48.385Z,16.15
2018-02-11T04:16:17.583Z,9.55
2018-02-11T04:18:46.785Z,11.15
2018-02-11T04:21:16.013Z,11.60
2018-02-11T04:23:45.225Z,10.13
2018-02-11T04:26:14.432Z,9.63
2018-02-11T04:28:43.641Z,10.60
2018-02-11T04:31:12.845Z,10.00
2018-02-11T04:33:42.058Z,9.25
2018-02-11T04:36:11.267Z,7.57
2018-02-11T04:38:40.500Z,5.70
2018-02-11T04:41:09.766Z,15.98
2018-02-11T04:43:38.983Z,8.90
2018-02-11T04:46:08.198Z,6.87
2018-02-11T04:48:37.405Z,11.40
2018-02-11T04:51:06.624Z,7.50
2018-02-11T04:53:35.825Z,7.87
2018-02-11T04:56:05.041Z,8.18
2018-02-11T04:58:34.253Z,6.22
2018-02-11T05:01:03.455Z,5.72
2018-02-11T05:03:32.685Z,5.70
2018-02-11T05:06:01.916Z,6.32
2018-02-11T05:08:31.124Z,4.80
2018-02-11T05:11:00.371Z,4.90
2018-02-11T05:13:29.584Z,7.47
2018-02-11T05:15:58.785Z,5.10
2018-02-11T05:18:28.020Z,6.55
2018-02-11T05:20:57.231Z,4.32
2018-02-11T05:23:26.439Z,7.95
2018-02-11T05:25:55.654Z,7.12
2018-02-11T05:28:24.865Z,6.85
2018-02-11T05:30:54.067Z,7.95
2018-02-11T05:33:23.280Z,6.12
2018-02-11T05:35:52.536Z,8.10
2018-02-11T05:38:21.735Z,6.25
2018-02-11T05:40:50.948Z,5.72
2018-02-11T05:43:20.179Z,5.80
2018-02-11T05:45:49.379Z,8.57
2018-02-11T05:48:18.598Z,6.35
2018-02-11T05:50:47.830Z,6.00
2018-02-11T05:53:17.035Z,3.80
2018-02-11T05:55:46.243Z,4.65
2018-02-11T05:58:15.486Z,6.80
2018-02-11T06:00:44.701Z,7.53
2018-02-11T06:03:13.902Z,8.02
2018-02-11T06:05:43.158Z,5.22
2018-02-11T06:08:12.346Z,5.37
2018-02-11T06:10:41.557Z,5.30
2018-02-11T06:13:10.760Z,5.57
2018-02-11T06:15:39.956Z,4.47
2018-02-11T06:18:09.169Z,6.70
2018-02-11T06:20:38.368Z,4.18
2018-02-11T06:23:07.574Z,4.55
2018-02-11T06:25:36.773Z,4.75
2018-02-11T06:28:05.987Z,4.25
2018-02-11T06:30:35.192Z,4.80
2018-02-11T06:33:04.383Z,4.43
2018-02-11T06:35:33.647Z,4.78
2018-02-11T06:38:02.868Z,8.73
2018-02-11T06:40:32.070Z,4.32
2018-02-11T06:43:01.306Z,6.40
2018-02-11T06:45:30.517Z,4.12
2018-02-11T06:47:59.711Z,5.20
2018-02-11T06:50:28.915Z,5.65
2018-02-11T06:52:58.118Z,6.20
2018-02-11T06:55:27.325Z,4.32
2018-02-11T06:57:56.531Z,4.43
2018-02-11T07:00:25.775Z,8.25
2018-02-11T07:02:54.969Z,4.53
2018-02-11T07:05:24.165Z,5.53
2018-02-11T07:07:53.382Z,3.50
2018-02-11T07:10:22.579Z,5.05
2018-02-11T07:12:51.791Z,3.50
2018-02-11T07:15:21.004Z,10.18
2018-02-11T07:17:50.205Z,5.87
2018-02-11T07:20:19.411Z,2.87
2018-02-11T07:22:48.613Z,3.67
2018-02-11T07:25:17.810Z,4.30
2018-02-11T07:27:47.043Z,3.47
2018-02-11T07:30:16.275Z,3.60
2018-02-11T07:32:45.490Z,3.92
2018-02-11T07:35:14.693Z,4.12
2018-02-11T07:37:43.924Z,4.53
2018-02-11T07:40:13.176Z,6.22
2018-02-11T07:42:42.387Z,4.40
2018-02-11T07:45:11.595Z,3.83
2018-02-11T07:47:40.796Z,6.12
2018-02-11T07:50:10.022Z,4.72
2018-02-11T07:52:39.228Z,3.50
2018-02-11T07:55:08.466Z,5.00
2018-02-11T07:57:37.696Z,5.97
2018-02-11T08:00:06.913Z,3.03
2018-02-11T08:02:36.223Z,7.22
2018-02-11T08:05:05.437Z,4.10
2018-02-11T08:07:34.636Z,2.65
2018-02-11T08:10:03.884Z,4.32
2018-02-11T08:12:33.164Z,6.75
2018-02-11T08:15:02.386Z,5.07
2018-02-11T08:17:31.654Z,5.97
2018-02-11T08:20:00.891Z,4.07
2018-02-11T08:22:30.104Z,3.05
2018-02-11T08:24:59.318Z,4.30
2018-02-11T08:27:28.541Z,3.90
2018-02-11T08:29:57.735Z,3.28
2018-02-11T08:32:26.932Z,3.50
2018-02-11T08:34:56.135Z,3.25
2018-02-11T08:37:25.359Z,3.53
2018-02-11T08:39:54.588Z,3.20
2018-02-11T08:42:23.815Z,14.25
2018-02-11T08:44:53.052Z,8.82
2018-02-11T08:47:22.271Z,10.57
2018-02-11T08:49:51.473Z,5.97
2018-02-11T08:52:20.730Z,5.68
2018-02-11T08:54:49.977Z,4.50
2018-02-11T08:57:19.186Z,6.20
2018-02-11T08:59:48.497Z,2.90
2018-02-11T09:02:17.707Z,2.90
2018-02-11T09:04:46.911Z,3.35
2018-02-11T09:07:16.120Z,4.90
2018-02-11T09:09:45.332Z,2.95
2018-02-11T09:12:14.579Z,3.33
2018-02-11T09:14:43.787Z,4.40
2018-02-11T09:17:12.996Z,3.70
2018-02-11T09:19:42.237Z,6.35
2018-02-11T09:22:11.438Z,3.45
2018-02-11T09:24:40.661Z,3.15
2018-02-11T09:27:09.887Z,3.60
2018-02-11T09:29:39.091Z,4.30
2018-02-11T09:32:08.296Z,4.40
2018-02-11T09:34:37.520Z,6.28
2018-02-11T09:37:06.753Z,6.25
2018-02-11T09:39:35.952Z,4.47
2018-02-11T09:42:05.159Z,9.30
2018-02-11T09:44:33.507Z,4.68
2018-02-11T09:47:01.066Z,6.85
2018-02-11T09:49:28.617Z,4.15
2018-02-11T09:51:56.891Z,6.30
2018-02-11T09:54:25.314Z,9.40
2018-02-11T09:56:52.865Z,2.58
2018-02-11T09:59:21.217Z,3.10
2018-02-11T10:01:48.773Z,5.20
2018-02-11T10:04:16.342Z,5.00
2018-02-11T10:06:43.922Z,7.43
2018-02-11T10:09:11.496Z,3.58
2018-02-11T10:11:39.069Z,3.00
2018-02-11T10:14:06.668Z,4.30
2018-02-11T10:16:34.423Z,2.75
2018-02-11T10:19:02.786Z,8.27
2018-02-11T10:21:30.362Z,3.78
2018-02-11T10:23:57.936Z,3.95
2018-02-11T10:26:25.489Z,3.10
2018-02-11T10:28:53.058Z,3.60
2018-02-11T10:31:20.761Z,4.32
2018-02-11T10:33:48.325Z,3.87
2018-02-11T10:36:15.889Z,3.95
2018-02-11T10:38:43.439Z,4.65
2018-02-11T10:41:11.772Z,3.55
2018-02-11T10:43:39.324Z,3.08
2018-02-11T10:46:06.936Z,3.65
2018-02-11T10:48:34.512Z,4.28
2018-02-11T10:51:02.060Z,2.45
2018-02-11T10:53:29.689Z,5.78
2018-02-11T10:55:57.258Z,4.20
2018-02-11T10:58:25.095Z,3.92
2018-02-11T11:00:53.600Z,7.07
2018-02-11T11:03:22.305Z,4.07
2018-02-11T11:05:50.073Z,2.08
2018-02-11T11:08:17.696Z,3.87
2018-02-11T11:10:45.608Z,6.62
2018-02-11T11:13:13.269Z,4.60
2018-02-11T11:15:40.949Z,4.03
2018-02-11T11:18:09.453Z,3.25
2018-02-11T11:20:37.101Z,2.15
2018-02-11T11:23:04.966Z,2.33
2018-02-11T11:25:33.554Z,2.05
2018-02-11T11:28:01.310Z,2.42
2018-02-11T11:30:29.702Z,3.75
2018-02-11T11:32:57.399Z,3.92
2018-02-11T11:35:25.507Z,3.72
2018-02-11T11:37:53.274Z,2.20
2018-02-11T11:40:20.915Z,3.17
2018-02-11T11:42:49.273Z,7.93
2018-02-11T11:45:16.927Z,2.30
2018-02-11T11:47:44.629Z,2.92
2018-02-11T11:50:12.422Z,4.57
2018-02-11T11:52:40.230Z,2.75
2018-02-11T11:55:07.843Z,5.30
2018-02-11T11:57:35.440Z,2.55
2018-02-11T12:00:03.916Z,3.20
2018-02-11T12:02:31.509Z,2.55
2018-02-11T12:04:59.186Z,2.28
2018-02-11T12:07:27.577Z,1.60
2018-02-11T12:09:55.315Z,1.62
2018-02-11T12:12:23.237Z,2.58
2018-02-11T12:14:51.692Z,1.85
2018-02-11T12:17:19.442Z,2.75
2018-02-11T12:19:47.184Z,2.42
2018-02-11T12:22:15.764Z,6.72
2018-02-11T12:24:43.519Z,1.52
2018-02-11T12:27:11.426Z,1.40
2018-02-11T12:29:39.802Z,2.65
2018-02-11T12:32:07.409Z,1.48
2018-02-11T12:34:34.952Z,5.78
2018-02-11T12:37:02.537Z,4.18
2018-02-11T12:39:30.122Z,1.60
2018-02-11T12:41:58.474Z,1.83
2018-02-11T12:44:26.030Z,1.50
2018-02-11T12:46:53.586Z,1.48
2018-02-11T12:49:21.158Z,1.80
2018-02-11T12:51:48.722Z,1.83
2018-02-11T12:54:16.283Z,1.55
2018-02-11T12:56:43.888Z,1.15
2018-02-11T12:59:11.446Z,1.58
2018-02-11T13:01:39.147Z,1.33
2018-02-11T13:04:06.718Z,0.70
2018-02-11T13:06:34.288Z,0.70
2018-02-11T13:09:01.843Z,0.62
2018-02-11T13:11:29.438Z,1.05
2018-02-11T13:13:57.027Z,1.15
2018-02-11T13:16:24.589Z,0.70
2018-02-11T13:18:52.146Z,0.70
2018-02-11T13:21:19.720Z,0.80
2018-02-11T13:23:47.280Z,0.70
2018-02-11T13:26:14.834Z,0.70
2018-02-11T13:28:42.432Z,1.27
2018-02-11T13:31:10.017Z,1.65
2018-02-11T13:33:37.589Z,2.45
2018-02-11T13:36:05.164Z,0.90
2018-02-11T13:38:32.746Z,2.15
2018-02-11T13:41:00.318Z,0.70
2018-02-11T13:43:27.869Z,1.40
2018-02-11T13:45:55.424Z,1.00
2018-02-11T13:48:22.990Z,0.68
2018-02-11T13:50:50.635Z,1.15
2018-02-11T13:53:18.352Z,0.70
2018-02-11T13:55:45.964Z,0.70
2018-02-11T13:58:14.478Z,0.95
2018-02-11T14:00:43.127Z,0.65
2018-02-11T14:03:12.486Z,0.70
2018-02-11T14:05:40.341Z,2.40
2018-02-11T14:08:08.076Z,1.40
2018-02-11T14:10:35.759Z,1.10
2018-02-11T14:13:03.408Z,1.70
2018-02-11T14:15:31.821Z,1.65
2018-02-11T14:18:00.472Z,2.08
2018-02-11T14:20:28.990Z,0.90
2018-02-11T14:22:56.915Z,1.75
2018-02-11T14:25:24.634Z,3.00
2018-02-11T14:27:52.262Z,0.70
2018-02-11T14:30:20.016Z,2.75
2018-02-11T14:32:47.726Z,0.80
2018-02-11T14:35:16.107Z,1.37
2018-02-11T14:37:46.489Z,0.88
2018-02-11T14:40:16.601Z,1.25
2018-02-11T14:42:44.953Z,1.55
2018-02-11T14:45:13.380Z,2.35
2018-02-11T14:47:41.056Z,2.97
2018-02-11T14:50:08.714Z,2.10
2018-02-11T14:52:36.465Z,4.93
2018-02-11T14:55:04.901Z,5.05
2018-02-11T14:57:32.563Z,1.20
2018-02-11T15:00:01.002Z,3.15
2018-02-11T15:02:28.650Z,4.25
2018-02-11T15:04:56.341Z,3.05
2018-02-11T15:07:24.074Z,3.00
2018-02-11T15:09:51.793Z,1.90
2018-02-11T15:12:19.521Z,1.10
2018-02-11T15:14:47.356Z,1.30
2018-02-11T15:17:14.917Z,2.50
2018-02-11T15:19:42.499Z,1.25
2018-02-11T15:22:10.084Z,1.20
2018-02-11T15:24:37.684Z,1.52
2018-02-11T15:27:05.999Z,2.22
2018-02-11T15:29:33.589Z,1.50
2018-02-11T15:32:01.152Z,1.62
2018-02-11T15:34:29.277Z,1.52
2018-02-11T15:36:56.859Z,3.42
2018-02-11T15:39:25.224Z,2.35
2018-02-11T15:41:52.796Z,2.15
2018-02-11T15:44:20.343Z,2.50
2018-02-11T15:46:47.914Z,1.50
2018-02-11T15:49:15.553Z,2.03
2018-02-11T15:51:44.026Z,2.47
2018-02-11T15:54:11.650Z,3.42
2018-02-11T15:56:39.250Z,1.92
2018-02-11T15:59:06.830Z,6.28
2018-02-11T16:01:34.395Z,3.70
2018-02-11T16:04:02.021Z,1.30
2018-02-11T16:06:30.368Z,1.85
2018-02-11T16:08:57.937Z,2.20
2018-02-11T16:11:25.537Z,4.82
2018-02-11T16:13:53.101Z,5.47
2018-02-11T16:16:20.677Z,4.50
2018-02-11T16:18:48.234Z,2.92
2018-02-11T16:21:15.796Z,3.47
2018-02-11T16:23:43.656Z,1.17
2018-02-11T16:26:11.236Z,2.83
2018-02-11T16:28:38.815Z,5.22
2018-02-11T16:31:06.385Z,4.05
2018-02-11T16:33:34.258Z,1.45
2018-02-11T16:36:01.848Z,1.85
2018-02-11T16:38:29.432Z,0.90
2018-02-11T16:40:56.997Z,0.88
2018-02-11T16:43:24.556Z,3.17
2018-02-11T16:45:52.150Z,1.40
2018-02-11T16:48:19.736Z,1.50
2018-02-11T16:50:47.285Z,1.80
2018-02-11T16:53:14.859Z,2.78
2018-02-11T16:55:42.422Z,3.65
2018-02-11T16:58:09.995Z,0.90
2018-02-11T17:00:37.595Z,2.33
2018-02-11T17:03:05.968Z,2.78
2018-02-11T17:05:33.558Z,4.40
2018-02-11T17:08:01.124Z,2.55
2018-02-11T17:10:28.709Z,1.25
2018-02-11T17:12:56.294Z,1.27
2018-02-11T17:15:23.912Z,4.93
2018-02-11T17:17:51.487Z,2.35
2018-02-11T17:20:19.215Z,2.80
2018-02-11T17:22:47.733Z,2.10
2018-02-11T17:25:15.313Z,3.60
2018-02-11T17:27:43.002Z,2.92
2018-02-11T17:30:10.607Z,1.20
2018-02-11T17:32:38.171Z,2.00
2018-02-11T17:35:05.748Z,2.65
2018-02-11T17:37:33.330Z,3.12
2018-02-11T17:40:00.968Z,3.40
2018-02-11T17:42:28.529Z,2.45
2018-02-11T17:44:56.113Z,6.97
2018-02-11T17:47:23.677Z,1.67
2018-02-11T17:49:51.220Z,1.67
2018-02-11T17:52:19.547Z,1.37
2018-02-11T17:54:47.214Z,3.62
2018-02-11T17:57:16.143Z,3.62
2018-02-11T17:59:43.820Z,1.85
2018-02-11T18:02:11.372Z,4.45
2018-02-11T18:04:38.986Z,1.55
2018-02-11T18:07:06.577Z,2.42
2018-02-11T18:09:34.951Z,3.87
2018-02-11T18:12:02.755Z,5.32
2018-02-11T18:14:30.430Z,6.15
2018-02-11T18:16:58.090Z,2.42
2018-02-11T18:19:25.689Z,2.72
2018-02-11T18:21:53.265Z,3.55
2018-02-11T18:24:20.825Z,2.35
2018-02-11T18:26:48.452Z,6.32
2018-02-11T18:29:16.018Z,5.65
2018-02-11T18:31:43.590Z,4.72
2018-02-11T18:34:11.213Z,4.55
2018-02-11T18:36:38.786Z,4.55
2018-02-11T18:39:08.344Z,3.40
2018-02-11T18:41:35.968Z,8.63
2018-02-11T18:44:03.570Z,3.05
2018-02-11T18:46:31.388Z,2.40
2018-02-11T18:48:58.996Z,2.90
2018-02-11T18:51:26.725Z,6.68
2018-02-11T18:53:55.093Z,5.60
2018-02-11T18:56:22.646Z,5.85
2018-02-11T18:58:50.240Z,11.07
2018-02-11T19:01:17.815Z,4.90
2018-02-11T19:03:45.401Z,6.57
2018-02-11T19:06:13.035Z,8.35
2018-02-11T19:08:40.628Z,6.25
2018-02-11T19:11:08.198Z,4.82
2018-02-11T19:13:35.785Z,4.20
2018-02-11T19:16:05.182Z,3.50
2018-02-11T19:18:32.776Z,9.68
2018-02-11T19:21:00.355Z,4.72
2018-02-11T19:23:27.901Z,6.87
2018-02-11T19:25:55.460Z,4.60
2018-02-11T19:28:23.005Z,5.05
2018-02-11T19:30:51.349Z,3.95
2018-02-11T19:33:18.910Z,5.32
2018-02-11T19:35:46.467Z,3.92
2018-02-11T19:38:14.036Z,2.75
2018-02-11T19:40:41.654Z,2.90
2018-02-11T19:43:09.233Z,5.75
2018-02-11T19:45:36.805Z,4.75
2018-02-11T19:48:04.367Z,5.30
2018-02-11T19:50:31.930Z,13.77
2018-02-11T19:52:59.497Z,2.17
2018-02-11T19:55:27.064Z,5.00
2018-02-11T19:57:54.624Z,6.45
2018-02-11T20:00:22.182Z,1.70
2018-02-11T20:02:49.813Z,5.10
2018-02-11T20:05:17.369Z,7.72
2018-02-11T20:07:44.951Z,4.10
2018-02-11T20:10:12.509Z,8.10
2018-02-11T20:12:40.126Z,6.43
2018-02-11T20:15:07.784Z,6.25
2018-02-11T20:17:35.332Z,5.32
2018-02-11T20:20:02.881Z,7.03
2018-02-11T20:22:30.454Z,6.35
2018-02-11T20:24:58.026Z,2.90
2018-02-11T20:27:25.589Z,5.10
2018-02-11T20:29:53.164Z,6.60
2018-02-11T20:32:20.815Z,6.45
2018-02-11T20:34:48.368Z,3.80
2018-02-11T20:37:16.681Z,6.05
2018-02-11T20:39:44.240Z,4.20
2018-02-11T20:42:11.801Z,4.37
2018-02-11T20:44:40.119Z,5.22
2018-02-11T20:50:01.241Z,4.65
2018-02-11T20:52:28.852Z,3.40
2018-02-11T20:54:56.550Z,14.30
2018-02-11T20:57:24.280Z,5.20
2018-02-11T21:05:37.752Z,8.10
2018-02-11T21:08:05.818Z,7.70
2018-02-11T21:16:30.876Z,5.97
2018-02-11T21:18:58.871Z,7.65
2018-02-11T21:21:26.554Z,7.47
2018-02-11T21:23:54.780Z,9.13
2018-02-11T21:26:22.383Z,3.87
2018-02-11T21:28:50.724Z,5.97
2018-02-11T21:31:18.287Z,4.93
2018-02-11T21:33:46.629Z,7.80
2018-02-11T21:36:14.206Z,5.78
2018-02-11T21:38:41.795Z,6.90
2018-02-11T21:41:09.342Z,4.62
2018-02-11T21:43:36.939Z,6.28
2018-02-11T21:46:04.643Z,4.85
2018-02-11T21:48:32.200Z,5.55
2018-02-11T21:50:59.791Z,15.07
2018-02-11T21:53:27.550Z,3.15
2018-02-11T21:55:55.120Z,6.05
2018-02-11T22:01:13.038Z,11.18
2018-02-11T22:03:41.355Z,10.68
2018-02-11T22:06:08.936Z,4.95
2018-02-11T22:08:36.495Z,3.75
2018-02-11T22:11:04.120Z,6.53
2018-02-11T22:13:34.990Z,3.70
2018-02-11T22:16:03.328Z,4.50
2018-02-11T22:18:32.913Z,5.60
2018-02-11T22:21:01.283Z,6.57
2018-02-11T22:23:28.904Z,7.53
2018-02-11T22:25:58.904Z,8.57
2018-02-11T22:28:27.252Z,4.15
2018-02-11T22:30:55.845Z,5.82
2018-02-11T22:33:24.405Z,20.20
2018-02-11T22:35:52.849Z,11.00
2018-02-11T22:38:25.616Z,11.05
2018-02-11T22:40:59.093Z,19.17
2018-02-11T22:43:28.325Z,10.70
2018-02-11T22:45:57.527Z,3.95
2018-02-11T22:48:27.613Z,11.18
2018-02-11T22:50:56.930Z,7.95
2018-02-11T22:53:27.924Z,7.87
2018-02-11T22:56:01.926Z,4.85
2018-02-11T22:58:31.195Z,7.82
2018-02-11T23:01:00.455Z,13.98
2018-02-11T23:03:29.758Z,4.97
2018-02-11T23:05:58.960Z,4.82
2018-02-11T23:08:28.173Z,4.05
2018-02-11T23:10:57.695Z,7.78
2018-02-11T23:13:26.991Z,12.37
2018-02-11T23:15:56.224Z,5.50
2018-02-11T23:18:25.459Z,3.08
2018-02-11T23:20:54.677Z,12.77
2018-02-11T23:23:23.895Z,7.50
2018-02-11T23:25:53.120Z,13.48
2018-02-11T23:28:22.418Z,13.95
2018-02-11T23:30:51.614Z,5.12
2018-02-11T23:33:20.895Z,7.95
2018-02-11T23:42:05.181Z,19.45
2018-02-11T23:44:34.417Z,29.50
2018-02-11T23:47:03.671Z,10.93
2018-02-11T23:49:32.931Z,6.18
2018-02-11T23:52:02.222Z,10.52
2018-02-11T23:54:31.469Z,6.75
2018-02-11T23:57:01.498Z,12.98
2018-02-11T23:59:30.745Z,10.82
